Página principal
METAR-TAF:

METAR-TAF

Aeroportos :

Aeroporto de Copenhaga

Copenhaga, Dinamarca

latitude: 55-37N, longitude: 012-39E, altura: 5 m

Observação actual do tempo

O boletim foi feito há 31 minutos, às 11:50 UTC
Vento 13 kt de sudoeste
Temperatura 24°C
Humidade 47%
Pressão 1025 hPa
Visibilidade 10 km ou mais

METAR: EKCH 231150Z AUTO 22013KT 9999 NCD 24/12 Q1025 NOSIG

Hora: 14:21 (12:21 UTC)

Previsão

O boletim foi feito há 1 hora e 18 minutos, às 11:03 UTC
Previsão válida de 23 às 12 UTC a 24 às 12 UTC
Vento 12 kt de sudoeste
Visibilidade 10 km ou mais
Poucas nuvensa uma altura de 4000 ft
Tornando-se
de 23 às 18 UTC a 23 às 21 UTC
Vento 2 kt com direcção variável

TAF: EKCH 231103Z 2312/2412 22012KT 9999 FEW040 BECMG 2318/2321 VRB02KT

Observações e previsões do tempo de mais de 4000 aeroportos (mensagens METAR e TAF).

As estações disponíveis são os pontos amarelos e vermelhos sobre o mapa.

Mova o rato sobre o mapa para ver o nome da estação.

Depois clique no ponto para visualizar as observações e previsões meteorológicas.

Para alterar o mapa : clique nos botões verdes com uma cruz preta para aumentar o zoom; no botão verde com uma pitada de zoom; ou nas setas verdes para mapas adjacentes.


METAR-TAF: